createdAt,value
2018-12-27T00:01:29.229Z,98457.36
2018-12-27T00:03:59.385Z,98454.77
2018-12-27T00:06:29.596Z,98458.83
2018-12-27T00:08:59.724Z,98443.41
2018-12-27T00:11:29.908Z,98445.45
2018-12-27T00:14:00.376Z,98450.14
2018-12-27T00:16:32.233Z,98448.34
2018-12-27T00:19:02.549Z,98456.77
2018-12-27T00:21:32.689Z,98454.66
2018-12-27T00:24:02.797Z,98453.23
2018-12-27T00:26:32.931Z,98453.23
2018-12-27T00:29:03.240Z,98446.27
2018-12-27T00:31:34.119Z,98444.16
2018-12-27T00:34:04.454Z,98438.20
2018-12-27T00:36:35.581Z,98440.39
2018-12-27T00:39:06.334Z,98440.64
2018-12-27T00:41:36.623Z,98445.29
2018-12-27T00:44:07.674Z,98446.05
2018-12-27T00:46:38.075Z,98447.86
2018-12-27T00:49:08.671Z,98447.39
2018-12-27T00:51:38.905Z,98444.90
2018-12-27T00:54:09.224Z,98447.27
2018-12-27T00:56:39.498Z,98450.02
2018-12-27T00:59:09.771Z,98446.97
2018-12-27T01:01:40.041Z,98449.23
2018-12-27T01:04:10.569Z,98450.80
2018-12-27T01:06:40.843Z,98445.89
2018-12-27T01:09:11.137Z,98443.23
2018-12-27T01:11:41.711Z,98445.59
2018-12-27T01:14:11.973Z,98440.00
2018-12-27T01:16:42.554Z,98440.95
2018-12-27T01:19:12.849Z,98437.08
2018-12-27T01:21:43.428Z,98432.06
2018-12-27T01:24:14.026Z,98431.73
2018-12-27T01:26:44.361Z,98440.48
2018-12-27T01:29:14.681Z,98437.58
2018-12-27T01:31:50.564Z,98433.55
2018-12-27T01:34:17.128Z,98437.33
2018-12-27T01:36:47.396Z,98426.88
2018-12-27T01:39:17.750Z,98431.08
2018-12-27T01:41:48.039Z,98426.58
2018-12-27T01:44:18.823Z,98420.95
2018-12-27T01:46:49.415Z,98425.47
2018-12-27T01:49:19.701Z,98426.19
2018-12-27T01:51:50.252Z,98422.70
2018-12-27T01:54:20.832Z,98427.34
2018-12-27T01:56:51.155Z,98429.13
2018-12-27T01:59:21.683Z,98421.28
2018-12-27T02:01:51.965Z,98428.41
2018-12-27T02:04:22.581Z,98419.25
2018-12-27T02:06:52.888Z,98419.00
2018-12-27T02:09:23.297Z,98416.34
2018-12-27T02:11:53.626Z,98414.36
2018-12-27T02:14:24.285Z,98419.84
2018-12-27T02:16:55.813Z,98419.08
2018-12-27T02:19:26.718Z,98418.31
2018-12-27T02:21:57.348Z,98415.27
2018-12-27T02:24:27.597Z,98416.20
2018-12-27T02:26:58.265Z,98414.58
2018-12-27T02:29:28.602Z,98412.75
2018-12-27T02:31:58.897Z,98419.33
2018-12-27T02:34:29.274Z,98400.89
2018-12-27T02:36:59.837Z,98404.23
2018-12-27T02:39:30.429Z,98402.81
2018-12-27T02:42:00.953Z,98388.62
2018-12-27T02:44:31.491Z,98383.80
2018-12-27T02:47:01.807Z,98381.36
2018-12-27T02:49:32.160Z,98380.75
2018-12-27T02:52:02.735Z,98382.48
2018-12-27T02:54:33.343Z,98378.63
2018-12-27T02:57:03.634Z,98373.99
2018-12-27T02:59:33.870Z,98372.88
2018-12-27T03:02:04.128Z,98360.84
2018-12-27T03:04:34.586Z,98352.97
2018-12-27T03:07:05.001Z,98355.84
2018-12-27T03:09:35.532Z,98358.59
2018-12-27T03:12:05.798Z,98355.09
2018-12-27T03:14:36.092Z,98350.63
2018-12-27T03:17:06.426Z,98345.16
2018-12-27T03:19:36.912Z,98349.80
2018-12-27T03:22:07.189Z,98343.27
2018-12-27T03:24:37.468Z,98340.99
2018-12-27T03:27:08.092Z,98334.16
2018-12-27T03:29:38.413Z,98332.20
2018-12-27T03:32:08.738Z,98334.63
2018-12-27T03:34:39.176Z,98323.45
2018-12-27T03:37:09.460Z,98329.45
2018-12-27T03:39:40.308Z,98323.03
2018-12-27T03:42:11.193Z,98331.67
2018-12-27T03:44:41.749Z,98324.55
2018-12-27T03:47:12.069Z,98323.77
2018-12-27T03:49:42.703Z,98329.16
2018-12-27T03:52:13.294Z,98331.30
2018-12-27T03:54:43.615Z,98327.13
2018-12-27T03:57:14.211Z,98325.45
2018-12-27T03:59:44.957Z,98319.09
2018-12-27T04:02:15.244Z,98309.80
2018-12-27T04:04:45.522Z,98309.51
2018-12-27T04:07:15.813Z,98309.75
2018-12-27T04:09:46.121Z,98294.52
2018-12-27T04:12:16.451Z,98285.34
2018-12-27T04:14:46.737Z,98290.48
2018-12-27T04:17:16.922Z,98282.12
2018-12-27T04:19:47.072Z,98282.77
2018-12-27T04:22:17.461Z,98284.00
2018-12-27T04:24:48.322Z,98287.67
2018-12-27T04:27:18.428Z,98277.26
2018-12-27T04:29:48.839Z,98285.05
2018-12-27T04:32:19.395Z,98291.98
2018-12-27T04:34:49.915Z,98290.59
2018-12-27T04:37:20.915Z,98284.91
2018-12-27T04:39:51.351Z,98291.16
2018-12-27T04:42:21.907Z,98286.44
2018-12-27T04:47:27.269Z,98273.05
2018-12-27T04:49:57.656Z,98273.87
2018-12-27T04:52:27.810Z,98276.34
2018-12-27T04:54:58.271Z,98269.91
2018-12-27T04:57:28.389Z,98259.32
2018-12-27T04:59:58.889Z,98271.37
2018-12-27T05:02:29.024Z,98269.72
2018-12-27T05:04:59.173Z,98266.00
2018-12-27T05:07:29.274Z,98260.28
2018-12-27T05:09:59.385Z,98260.43
2018-12-27T05:12:29.788Z,98252.80
2018-12-27T05:14:59.934Z,98255.56
2018-12-27T05:17:30.410Z,98260.17
2018-12-27T05:20:00.538Z,98265.74
2018-12-27T05:22:30.903Z,98267.19
2018-12-27T05:25:00.997Z,98259.12
2018-12-27T05:27:31.216Z,98272.95
2018-12-27T05:30:01.442Z,98264.97
2018-12-27T05:32:32.424Z,98263.54
2018-12-27T05:35:02.711Z,98270.14
2018-12-27T05:37:32.895Z,98270.05
2018-12-27T05:40:03.046Z,98262.92
2018-12-27T05:42:33.201Z,98263.16
2018-12-27T05:45:03.604Z,98262.33
2018-12-27T05:47:33.838Z,98257.57
2018-12-27T05:50:03.977Z,98262.77
2018-12-27T05:52:34.152Z,98267.07
2018-12-27T05:55:04.333Z,98260.17
2018-12-27T05:57:34.474Z,98259.02
2018-12-27T06:00:05.075Z,98263.80
2018-12-27T06:02:35.248Z,98260.37
2018-12-27T06:05:05.803Z,98264.42
2018-12-27T06:07:35.938Z,98261.47
2018-12-27T06:10:06.482Z,98261.55
2018-12-27T06:12:36.660Z,98263.71
2018-12-27T06:15:06.820Z,98273.46
2018-12-27T06:17:36.988Z,98274.05
2018-12-27T06:20:07.218Z,98273.73
2018-12-27T06:22:37.411Z,98275.28
2018-12-27T06:25:07.568Z,98275.88
2018-12-27T06:27:37.939Z,98271.44
2018-12-27T06:30:08.304Z,98269.30
2018-12-27T06:32:38.741Z,98268.98
2018-12-27T06:35:08.891Z,98273.13
2018-12-27T06:37:39.053Z,98280.88
2018-12-27T06:40:09.450Z,98277.09
2018-12-27T06:42:39.669Z,98275.77
2018-12-27T06:45:09.793Z,98279.58
2018-12-27T06:47:39.974Z,98275.02
2018-12-27T06:50:10.125Z,98281.83
2018-12-27T06:52:40.337Z,98265.64
2018-12-27T06:55:10.776Z,98272.98
2018-12-27T06:57:41.217Z,98277.20
2018-12-27T07:00:11.331Z,98276.50
2018-12-27T07:02:41.487Z,98277.30
2018-12-27T07:05:11.951Z,98273.64
2018-12-27T07:07:42.110Z,98268.91
2018-12-27T07:10:12.301Z,98272.22
2018-12-27T07:12:42.879Z,98274.48
2018-12-27T07:15:13.019Z,98268.61
2018-12-27T07:17:43.281Z,98273.77
2018-12-27T07:20:13.810Z,98266.78
2018-12-27T07:22:44.026Z,98271.28
2018-12-27T07:25:14.238Z,98274.25
2018-12-27T07:27:44.657Z,98278.78
2018-12-27T07:30:14.808Z,98282.92
2018-12-27T07:32:45.195Z,98289.06
2018-12-27T07:35:15.679Z,98291.94
2018-12-27T07:37:45.846Z,98287.05
2018-12-27T07:40:16.233Z,98285.88
2018-12-27T07:42:46.594Z,98287.98
2018-12-27T07:45:16.993Z,98288.15
2018-12-27T07:47:47.152Z,98291.72
2018-12-27T07:50:17.280Z,98283.23
2018-12-27T07:52:47.483Z,98287.97
2018-12-27T07:55:17.532Z,98280.07
2018-12-27T07:57:47.816Z,98286.28
2018-12-27T08:00:18.007Z,98290.70
2018-12-27T08:02:48.127Z,98288.93
2018-12-27T08:05:18.230Z,98283.11
2018-12-27T08:07:48.617Z,98284.99
2018-12-27T08:10:18.777Z,98284.63
2018-12-27T08:12:49.001Z,98284.94
2018-12-27T08:15:19.207Z,98293.33
2018-12-27T08:17:49.666Z,98283.40
2018-12-27T08:20:20.029Z,98281.00
2018-12-27T08:22:50.478Z,98291.39
2018-12-27T08:25:20.595Z,98291.53
2018-12-27T08:27:50.789Z,98286.07
2018-12-27T08:30:20.908Z,98280.88
2018-12-27T08:32:51.187Z,98278.06
2018-12-27T08:35:21.342Z,98275.20
2018-12-27T08:37:51.483Z,98273.66
2018-12-27T08:40:21.861Z,98265.44
2018-12-27T08:42:54.076Z,98270.35
2018-12-27T08:45:24.153Z,98267.05
2018-12-27T08:47:54.342Z,98272.46
2018-12-27T08:50:24.570Z,98275.48
2018-12-27T08:52:54.716Z,98265.86
2018-12-27T08:55:24.844Z,98267.29
2018-12-27T08:57:54.974Z,98256.00
2018-12-27T09:00:25.339Z,98252.20
2018-12-27T09:02:55.461Z,98254.41
2018-12-27T09:05:25.559Z,98256.91
2018-12-27T09:07:55.674Z,98264.73
2018-12-27T09:10:25.809Z,98258.64
2018-12-27T09:12:55.945Z,98258.25
2018-12-27T09:15:26.358Z,98260.12
2018-12-27T09:17:56.756Z,98261.16
2018-12-27T09:20:26.887Z,98270.49
2018-12-27T09:22:57.005Z,98285.81
2018-12-27T09:25:27.638Z,98271.47
2018-12-27T09:27:57.754Z,98269.34
2018-12-27T09:30:28.617Z,98263.81
2018-12-27T09:32:58.760Z,98265.17
2018-12-27T09:35:29.104Z,98254.89
2018-12-27T09:37:59.511Z,98261.26
2018-12-27T09:40:29.645Z,98259.69
2018-12-27T09:42:59.762Z,98258.50
2018-12-27T09:45:29.894Z,98266.37
2018-12-27T09:48:00.014Z,98265.47
2018-12-27T09:50:30.462Z,98275.45
2018-12-27T09:53:00.793Z,98272.31
2018-12-27T09:55:31.229Z,98268.78
2018-12-27T09:58:01.599Z,98257.27
2018-12-27T10:00:33.179Z,98263.98
2018-12-27T10:03:03.878Z,98249.22
2018-12-27T10:05:34.312Z,98245.49
2018-12-27T10:08:04.757Z,98249.23
2018-12-27T10:10:35.300Z,98248.90
2018-12-27T10:13:05.502Z,98251.41
2018-12-27T10:15:35.672Z,98248.94
2018-12-27T10:18:05.883Z,98246.70
2018-12-27T10:20:36.032Z,98241.89
2018-12-27T10:23:06.332Z,98241.82
2018-12-27T10:25:37.061Z,98232.39
2018-12-27T10:28:07.246Z,98232.55
2018-12-27T10:30:37.357Z,98234.86
2018-12-27T10:33:07.572Z,98215.89
2018-12-27T10:35:41.294Z,98219.32
2018-12-27T10:38:10.169Z,98209.70
2018-12-27T10:40:40.304Z,98209.92
2018-12-27T10:43:10.677Z,98204.63
2018-12-27T10:45:40.846Z,98194.92
2018-12-27T10:48:11.096Z,98192.95
2018-12-27T10:50:41.473Z,98189.98
2018-12-27T10:53:11.605Z,98181.41
2018-12-27T10:55:41.732Z,98183.02
2018-12-27T10:58:12.901Z,98176.59
2018-12-27T11:00:52.209Z,98173.81
2018-12-27T11:03:30.295Z,98170.22
2018-12-27T11:05:55.153Z,98167.59
2018-12-27T11:08:25.413Z,98162.02
2018-12-27T11:10:58.100Z,98157.94
2018-12-27T11:13:30.596Z,98163.66
2018-12-27T11:16:00.831Z,98159.96
2018-12-27T11:18:31.032Z,98156.75
2018-12-27T11:21:01.142Z,98148.13
2018-12-27T11:23:31.283Z,98145.34
2018-12-27T11:26:03.454Z,98140.16
2018-12-27T11:28:33.945Z,98129.25
2018-12-27T11:31:05.125Z,98125.98
2018-12-27T11:33:35.257Z,98117.14
2018-12-27T11:36:07.069Z,98113.13
2018-12-27T11:38:37.801Z,98114.88
2018-12-27T11:41:09.108Z,98118.37
2018-12-27T11:43:39.637Z,98107.61
2018-12-27T11:46:09.795Z,98100.84
2018-12-27T11:48:40.541Z,98109.61
2018-12-27T11:51:10.660Z,98097.22
2018-12-27T11:53:41.384Z,98092.88
2018-12-27T11:56:11.540Z,98089.63
2018-12-27T11:58:41.687Z,98087.69
2018-12-27T12:01:13.206Z,98083.66
2018-12-27T12:03:43.339Z,98087.23
2018-12-27T12:06:13.460Z,98080.45
2018-12-27T12:08:43.934Z,98085.46
2018-12-27T12:11:14.626Z,98085.44
2018-12-27T12:13:45.415Z,98081.14
2018-12-27T12:16:15.576Z,98083.84
2018-12-27T12:18:45.744Z,98077.20
2018-12-27T12:21:16.167Z,98069.25
2018-12-27T12:23:46.627Z,98066.56
2018-12-27T12:26:16.813Z,98069.85
2018-12-27T12:28:48.322Z,98074.25
2018-12-27T12:31:18.439Z,98064.20
2018-12-27T12:33:48.596Z,98064.00
2018-12-27T12:36:18.834Z,98061.45
2018-12-27T12:38:49.381Z,98059.66
2018-12-27T12:41:20.196Z,98061.23
2018-12-27T12:43:51.055Z,98060.98
2018-12-27T12:46:23.895Z,98065.42
2018-12-27T12:48:54.332Z,98064.72
2018-12-27T12:51:24.873Z,98062.60
2018-12-27T12:53:55.032Z,98061.67
2018-12-27T12:56:31.320Z,98064.13
2018-12-27T12:59:01.521Z,98054.64
2018-12-27T13:01:31.713Z,98056.93
2018-12-27T13:04:01.864Z,98053.22
2018-12-27T13:06:32.477Z,98051.47
2018-12-27T13:09:04.277Z,98057.54
2018-12-27T13:11:35.277Z,98054.20
2018-12-27T13:14:05.432Z,98060.72
2018-12-27T13:16:37.485Z,98056.16
2018-12-27T13:19:07.718Z,98061.12
2018-12-27T13:21:38.399Z,98052.96
2018-12-27T13:24:09.121Z,98056.34
2018-12-27T13:26:41.321Z,98063.83
2018-12-27T13:29:11.826Z,98058.61
2018-12-27T13:31:43.721Z,98055.33
2018-12-27T13:34:14.124Z,98050.81
2018-12-27T13:36:44.270Z,98054.25
2018-12-27T13:39:14.429Z,98058.54
2018-12-27T13:41:44.553Z,98053.81
2018-12-27T13:44:15.109Z,98044.38
2018-12-27T13:46:45.264Z,98042.13
2018-12-27T13:49:18.810Z,98049.92
2018-12-27T13:51:49.122Z,98043.95
2018-12-27T13:54:19.315Z,98046.34
2018-12-27T13:56:49.687Z,98052.13
2018-12-27T13:59:19.868Z,98050.17
2018-12-27T14:01:50.594Z,98047.00
2018-12-27T14:04:20.788Z,98047.32
2018-12-27T14:06:51.587Z,98046.30
2018-12-27T14:09:22.003Z,98050.92
2018-12-27T14:11:52.175Z,98052.44
2018-12-27T14:14:22.669Z,98050.89
2018-12-27T14:16:53.358Z,98055.22
2018-12-27T14:19:23.559Z,98048.95
2018-12-27T14:21:53.703Z,98054.26
2018-12-27T14:24:24.008Z,98055.94
2018-12-27T14:26:55.421Z,98053.30
2018-12-27T14:29:25.837Z,98051.17
2018-12-27T14:31:55.984Z,98054.85
2018-12-27T14:34:28.590Z,98055.47
2018-12-27T14:36:58.765Z,98057.25
2018-12-27T14:39:29.176Z,98059.50
2018-12-27T14:42:00.151Z,98057.13
2018-12-27T14:44:30.558Z,98061.48
2018-12-27T14:47:00.697Z,98061.61
2018-12-27T14:49:30.872Z,98065.22
2018-12-27T14:52:01.039Z,98074.70
2018-12-27T14:54:31.245Z,98076.75
2018-12-27T14:57:01.373Z,98070.20
2018-12-27T14:59:31.975Z,98079.17
2018-12-27T15:02:03.194Z,98073.79
2018-12-27T15:04:34.333Z,98079.02
2018-12-27T15:07:04.736Z,98074.20
2018-12-27T15:09:34.915Z,98074.58
2018-12-27T15:12:05.044Z,98072.28
2018-12-27T15:14:35.262Z,98075.34
2018-12-27T15:17:05.388Z,98069.09
2018-12-27T15:19:36.868Z,98071.65
2018-12-27T15:22:07.082Z,98064.75
2018-12-27T15:24:38.696Z,98069.09
2018-12-27T15:27:09.166Z,98065.86
2018-12-27T15:29:39.305Z,98075.88
2018-12-27T15:32:09.506Z,98071.41
2018-12-27T15:34:39.948Z,98067.81
2018-12-27T15:37:10.320Z,98064.67
2018-12-27T15:39:40.416Z,98065.80
2018-12-27T15:42:10.575Z,98062.11
2018-12-27T15:44:40.691Z,98067.86
2018-12-27T15:47:11.084Z,98065.98
2018-12-27T15:49:41.453Z,98068.95
2018-12-27T15:52:12.942Z,98073.39
2018-12-27T15:54:43.307Z,98072.86
2018-12-27T15:57:14.133Z,98077.47
2018-12-27T15:59:44.645Z,98077.47
2018-12-27T16:02:14.815Z,98073.59
2018-12-27T16:04:44.961Z,98075.23
2018-12-27T16:07:15.372Z,98069.61
2018-12-27T16:09:45.516Z,98079.12
2018-12-27T16:12:16.055Z,98077.11
2018-12-27T16:14:46.612Z,98072.11
2018-12-27T16:17:17.000Z,98067.14
2018-12-27T16:19:47.209Z,98073.02
2018-12-27T16:22:17.388Z,98071.45
2018-12-27T16:24:48.215Z,98063.42
2018-12-27T16:27:19.357Z,98064.70
2018-12-27T16:29:49.723Z,98068.92
2018-12-27T16:32:19.859Z,98070.16
2018-12-27T16:34:50.307Z,98059.16
2018-12-27T16:37:20.496Z,98066.65
2018-12-27T16:39:51.675Z,98065.92
2018-12-27T16:42:22.213Z,98072.47
2018-12-27T16:44:52.350Z,98076.17
2018-12-27T16:47:22.793Z,98078.02
2018-12-27T16:49:53.996Z,98077.09
2018-12-27T16:52:25.167Z,98079.20
2018-12-27T16:54:55.447Z,98080.59
2018-12-27T16:57:27.825Z,98081.42
2018-12-27T16:59:57.920Z,98079.48
2018-12-27T17:02:28.052Z,98080.47
2018-12-27T17:04:58.709Z,98073.73
2018-12-27T17:07:29.489Z,98069.95
2018-12-27T17:10:00.506Z,98067.81
2018-12-27T17:12:31.303Z,98066.73
2018-12-27T17:15:01.893Z,98072.71
2018-12-27T17:17:32.875Z,98061.94
2018-12-27T17:20:03.589Z,98064.52
2018-12-27T17:22:34.661Z,98058.13
2018-12-27T17:25:05.047Z,98062.10
2018-12-27T17:27:35.193Z,98060.64
2018-12-27T17:30:06.003Z,98063.02
2018-12-27T17:32:36.306Z,98060.13
2018-12-27T17:35:06.883Z,98066.73
2018-12-27T17:37:36.994Z,98062.27
2018-12-27T17:40:07.375Z,98060.81
2018-12-27T17:42:37.568Z,98058.33
2018-12-27T17:45:07.831Z,98056.19
2018-12-27T17:47:38.020Z,98057.64
2018-12-27T17:50:08.279Z,98055.06
2018-12-27T17:52:39.994Z,98060.27
2018-12-27T17:55:10.141Z,98049.17
2018-12-27T17:57:40.557Z,98050.16
2018-12-27T18:00:11.821Z,98064.58
2018-12-27T18:02:42.305Z,98057.06
2018-12-27T18:05:12.845Z,98060.27
2018-12-27T18:07:42.992Z,98058.87
2018-12-27T18:10:13.154Z,98067.23
2018-12-27T18:12:43.255Z,98059.86
2018-12-27T18:17:33.895Z,98057.58
2018-12-27T18:20:04.584Z,98061.42
2018-12-27T18:22:34.977Z,98055.80
2018-12-27T18:25:05.706Z,98068.14
2018-12-27T18:27:35.903Z,98065.87
2018-12-27T18:30:06.585Z,98060.33
2018-12-27T18:32:37.189Z,98065.12
2018-12-27T18:35:07.796Z,98071.95
2018-12-27T18:37:38.199Z,98073.41
2018-12-27T18:40:08.683Z,98071.65
2018-12-27T18:42:39.077Z,98069.16
2018-12-27T18:45:09.750Z,98068.52
2018-12-27T18:47:40.237Z,98062.64
2018-12-27T18:50:10.595Z,98068.14
2018-12-27T18:52:40.766Z,98070.70
2018-12-27T18:55:11.609Z,98065.87
2018-12-27T18:57:41.858Z,98062.05
2018-12-27T19:00:13.213Z,98058.34
2018-12-27T19:05:23.798Z,98073.30
2018-12-27T19:07:53.940Z,98066.63
2018-12-27T19:10:24.102Z,98058.67
2018-12-27T19:13:06.280Z,98065.02
2018-12-27T19:15:43.040Z,98070.91
2018-12-27T19:18:51.822Z,98068.61
2018-12-27T19:21:45.018Z,98073.28
2018-12-27T19:24:15.448Z,98066.64
2018-12-27T19:26:45.559Z,98066.59
2018-12-27T19:29:16.097Z,98068.48
2018-12-27T19:31:46.261Z,98063.29
2018-12-27T19:34:16.436Z,98065.66
2018-12-27T19:36:46.836Z,98065.16
2018-12-27T19:39:16.917Z,98064.57
2018-12-27T19:41:47.033Z,98069.64
2018-12-27T19:44:17.231Z,98080.87
2018-12-27T19:46:47.430Z,98076.66
2018-12-27T19:49:17.560Z,98086.28
2018-12-27T19:51:47.913Z,98088.61
2018-12-27T19:54:18.193Z,98085.84
2018-12-27T19:56:48.595Z,98084.44
2018-12-27T19:59:18.689Z,98081.41
2018-12-27T20:01:49.038Z,98076.44
2018-12-27T20:04:19.169Z,98084.27
2018-12-27T20:06:49.538Z,98085.69
2018-12-27T20:09:19.933Z,98088.03
2018-12-27T20:11:50.102Z,98085.05
2018-12-27T20:14:20.264Z,98084.55
2018-12-27T20:16:50.429Z,98087.58
2018-12-27T20:19:20.861Z,98082.32
2018-12-27T20:21:52.191Z,98083.61
2018-12-27T20:24:22.883Z,98082.86
2018-12-27T20:26:53.341Z,98088.58
2018-12-27T20:29:23.734Z,98087.71
2018-12-27T20:31:54.031Z,98088.66
2018-12-27T20:34:24.131Z,98087.62
2018-12-27T20:36:54.287Z,98089.04
2018-12-27T20:39:24.715Z,98094.53
2018-12-27T20:41:55.287Z,98085.12
2018-12-27T20:44:25.508Z,98086.06
2018-12-27T20:47:00.288Z,98087.37
2018-12-27T20:49:30.724Z,98082.06
2018-12-27T20:52:01.568Z,98077.28
2018-12-27T20:54:32.063Z,98083.73
2018-12-27T20:57:02.809Z,98082.28
2018-12-27T20:59:33.388Z,98083.79
2018-12-27T21:02:03.952Z,98085.04
2018-12-27T21:04:34.554Z,98080.80
2018-12-27T21:07:04.735Z,98072.27
2018-12-27T21:09:36.686Z,98071.44
2018-12-27T21:12:06.764Z,98077.41
2018-12-27T21:14:37.250Z,98068.70
2018-12-27T21:17:07.376Z,98064.41
2018-12-27T21:19:37.836Z,98068.41
2018-12-27T21:22:08.222Z,98061.46
2018-12-27T21:24:38.509Z,98059.98
2018-12-27T21:27:08.913Z,98053.84
2018-12-27T21:29:39.054Z,98049.31
2018-12-27T21:32:09.535Z,98051.86
2018-12-27T21:34:39.724Z,98051.77
2018-12-27T21:37:09.826Z,98043.37
2018-12-27T21:39:39.981Z,98047.80
2018-12-27T21:42:10.103Z,98045.16
2018-12-27T21:44:40.215Z,98037.55
2018-12-27T21:47:10.620Z,98044.94
2018-12-27T21:49:40.927Z,98047.66
2018-12-27T21:52:11.088Z,98033.93
2018-12-27T21:54:41.203Z,98030.00
2018-12-27T21:57:12.796Z,98024.94
2018-12-27T21:59:42.872Z,98030.97
2018-12-27T22:02:13.850Z,98028.05
2018-12-27T22:04:44.210Z,98026.13
2018-12-27T22:07:14.855Z,98026.85
2018-12-27T22:09:45.269Z,98016.84
2018-12-27T22:12:15.446Z,98016.56
2018-12-27T22:14:45.544Z,98016.94
2018-12-27T22:17:16.045Z,98013.70
2018-12-27T22:19:46.282Z,98014.70
2018-12-27T22:22:16.465Z,98010.16
2018-12-27T22:24:46.573Z,98009.20
2018-12-27T22:27:16.934Z,98001.36
2018-12-27T22:29:47.084Z,98000.00
2018-12-27T22:32:17.234Z,97997.53
2018-12-27T22:34:47.490Z,98002.06
2018-12-27T22:37:17.652Z,98000.91
2018-12-27T22:39:48.028Z,98005.78
2018-12-27T22:42:18.426Z,98003.72
2018-12-27T22:44:48.806Z,98015.53
2018-12-27T22:47:18.952Z,98017.17
2018-12-27T22:49:49.133Z,98012.53
2018-12-27T22:52:19.455Z,98020.41
2018-12-27T22:54:49.637Z,98019.52
2018-12-27T22:57:20.137Z,98020.28
2018-12-27T22:59:50.284Z,98020.52
2018-12-27T23:02:20.419Z,98010.77
2018-12-27T23:04:50.691Z,98011.57
2018-12-27T23:07:21.025Z,98016.18
2018-12-27T23:09:51.254Z,98007.94
2018-12-27T23:12:21.408Z,98013.41
2018-12-27T23:14:51.821Z,98019.77
2018-12-27T23:17:23.014Z,98019.20
2018-12-27T23:19:53.433Z,98009.03
2018-12-27T23:22:23.558Z,98022.88
2018-12-27T23:24:53.821Z,98013.53
2018-12-27T23:27:24.238Z,98007.11
2018-12-27T23:29:55.015Z,98007.73
2018-12-27T23:32:25.205Z,98023.16
2018-12-27T23:34:55.866Z,98024.99
2018-12-27T23:37:26.045Z,98022.78
2018-12-27T23:39:56.228Z,98018.96
2018-12-27T23:42:26.911Z,98013.28
2018-12-27T23:44:57.369Z,98020.67
2018-12-27T23:47:27.497Z,98020.34
2018-12-27T23:49:57.666Z,98015.67
2018-12-27T23:52:28.110Z,98017.92
2018-12-27T23:54:58.495Z,98011.61
2018-12-27T23:57:30.760Z,98019.42
